sensor_id;sensor_type;location;lat;lon;timestamp;P1;durP1;ratioP1;P2;durP2;ratioP2
12271;SDS011;6198;51.446;6.698;2022-07-06T00:01:06;1.90;;;1.70;;
12271;SDS011;6198;51.446;6.698;2022-07-06T00:03:32;2.00;;;1.70;;
12271;SDS011;6198;51.446;6.698;2022-07-06T00:05:58;4.60;;;2.23;;
12271;SDS011;6198;51.446;6.698;2022-07-06T00:08:24;4.53;;;2.10;;
12271;SDS011;6198;51.446;6.698;2022-07-06T00:10:50;4.17;;;2.10;;
12271;SDS011;6198;51.446;6.698;2022-07-06T00:13:16;3.23;;;2.10;;
12271;SDS011;6198;51.446;6.698;2022-07-06T00:15:42;2.33;;;1.90;;
12271;SDS011;6198;51.446;6.698;2022-07-06T00:18:08;3.43;;;1.77;;
12271;SDS011;6198;51.446;6.698;2022-07-06T00:20:34;2.50;;;1.87;;
12271;SDS011;6198;51.446;6.698;2022-07-06T00:23:00;4.80;;;1.90;;
12271;SDS011;6198;51.446;6.698;2022-07-06T00:25:26;2.60;;;2.23;;
12271;SDS011;6198;51.446;6.698;2022-07-06T00:27:52;4.53;;;2.30;;
12271;SDS011;6198;51.446;6.698;2022-07-06T00:30:18;3.93;;;1.87;;
12271;SDS011;6198;51.446;6.698;2022-07-06T00:32:44;2.90;;;2.27;;
12271;SDS011;6198;51.446;6.698;2022-07-06T00:35:10;2.80;;;2.60;;
12271;SDS011;6198;51.446;6.698;2022-07-06T00:37:36;4.40;;;3.37;;
12271;SDS011;6198;51.446;6.698;2022-07-06T00:40:02;4.87;;;2.50;;
12271;SDS011;6198;51.446;6.698;2022-07-06T00:42:28;3.67;;;2.13;;
12271;SDS011;6198;51.446;6.698;2022-07-06T00:44:53;2.50;;;2.30;;
12271;SDS011;6198;51.446;6.698;2022-07-06T00:47:19;2.83;;;2.53;;
12271;SDS011;6198;51.446;6.698;2022-07-06T00:49:45;5.97;;;2.80;;
12271;SDS011;6198;51.446;6.698;2022-07-06T00:52:30;2.30;;;2.10;;
12271;SDS011;6198;51.446;6.698;2022-07-06T00:54:56;3.90;;;2.47;;
12271;SDS011;6198;51.446;6.698;2022-07-06T00:57:23;4.23;;;2.50;;
12271;SDS011;6198;51.446;6.698;2022-07-06T00:59:49;2.83;;;2.60;;
12271;SDS011;6198;51.446;6.698;2022-07-06T01:02:15;4.30;;;2.70;;
12271;SDS011;6198;51.446;6.698;2022-07-06T01:04:41;5.03;;;2.80;;
12271;SDS011;6198;51.446;6.698;2022-07-06T01:07:07;4.47;;;2.83;;
12271;SDS011;6198;51.446;6.698;2022-07-06T01:09:33;3.30;;;2.70;;
12271;SDS011;6198;51.446;6.698;2022-07-06T01:11:59;5.13;;;3.07;;
12271;SDS011;6198;51.446;6.698;2022-07-06T01:14:25;5.27;;;2.90;;
12271;SDS011;6198;51.446;6.698;2022-07-06T01:16:51;3.23;;;2.73;;
12271;SDS011;6198;51.446;6.698;2022-07-06T01:19:17;3.87;;;2.93;;
12271;SDS011;6198;51.446;6.698;2022-07-06T01:21:43;3.53;;;2.87;;
12271;SDS011;6198;51.446;6.698;2022-07-06T01:24:09;3.60;;;3.30;;
12271;SDS011;6198;51.446;6.698;2022-07-06T01:26:34;3.00;;;2.70;;
12271;SDS011;6198;51.446;6.698;2022-07-06T01:29:00;6.03;;;2.73;;
12271;SDS011;6198;51.446;6.698;2022-07-06T01:31:26;5.13;;;3.37;;
12271;SDS011;6198;51.446;6.698;2022-07-06T01:33:53;3.47;;;2.73;;
12271;SDS011;6198;51.446;6.698;2022-07-06T01:36:20;4.53;;;2.70;;
12271;SDS011;6198;51.446;6.698;2022-07-06T01:38:47;4.80;;;3.40;;
12271;SDS011;6198;51.446;6.698;2022-07-06T01:41:13;3.53;;;2.77;;
12271;SDS011;6198;51.446;6.698;2022-07-06T01:43:39;6.40;;;3.20;;
12271;SDS011;6198;51.446;6.698;2022-07-06T01:46:05;3.00;;;2.70;;
12271;SDS011;6198;51.446;6.698;2022-07-06T01:48:31;2.87;;;2.60;;
12271;SDS011;6198;51.446;6.698;2022-07-06T01:50:57;3.30;;;2.70;;
12271;SDS011;6198;51.446;6.698;2022-07-06T01:53:23;5.00;;;2.97;;
12271;SDS011;6198;51.446;6.698;2022-07-06T01:55:49;3.53;;;2.67;;
12271;SDS011;6198;51.446;6.698;2022-07-06T01:58:15;3.93;;;2.87;;
12271;SDS011;6198;51.446;6.698;2022-07-06T02:00:41;5.23;;;2.90;;
12271;SDS011;6198;51.446;6.698;2022-07-06T02:03:07;2.63;;;2.43;;
12271;SDS011;6198;51.446;6.698;2022-07-06T02:05:33;3.17;;;2.83;;
12271;SDS011;6198;51.446;6.698;2022-07-06T02:07:59;4.33;;;2.80;;
12271;SDS011;6198;51.446;6.698;2022-07-06T02:10:25;3.53;;;2.93;;
12271;SDS011;6198;51.446;6.698;2022-07-06T02:12:51;3.07;;;2.50;;
12271;SDS011;6198;51.446;6.698;2022-07-06T02:15:17;4.40;;;3.23;;
12271;SDS011;6198;51.446;6.698;2022-07-06T02:17:43;4.30;;;2.90;;
12271;SDS011;6198;51.446;6.698;2022-07-06T02:20:09;3.80;;;2.83;;
12271;SDS011;6198;51.446;6.698;2022-07-06T02:22:35;3.47;;;3.03;;
12271;SDS011;6198;51.446;6.698;2022-07-06T02:25:01;2.60;;;2.40;;
12271;SDS011;6198;51.446;6.698;2022-07-06T02:27:27;3.10;;;2.80;;
12271;SDS011;6198;51.446;6.698;2022-07-06T02:29:53;3.63;;;2.73;;
12271;SDS011;6198;51.446;6.698;2022-07-06T02:32:19;3.07;;;2.70;;
12271;SDS011;6198;51.446;6.698;2022-07-06T02:34:44;3.40;;;2.77;;
12271;SDS011;6198;51.446;6.698;2022-07-06T02:37:10;5.10;;;3.13;;
12271;SDS011;6198;51.446;6.698;2022-07-06T02:39:37;3.20;;;2.90;;
12271;SDS011;6198;51.446;6.698;2022-07-06T02:42:03;4.93;;;2.93;;
12271;SDS011;6198;51.446;6.698;2022-07-06T02:44:29;3.73;;;3.17;;
12271;SDS011;6198;51.446;6.698;2022-07-06T02:46:55;5.90;;;3.03;;
12271;SDS011;6198;51.446;6.698;2022-07-06T02:49:20;3.73;;;2.63;;
12271;SDS011;6198;51.446;6.698;2022-07-06T02:51:46;4.00;;;3.00;;
12271;SDS011;6198;51.446;6.698;2022-07-06T02:54:13;3.17;;;2.70;;
12271;SDS011;6198;51.446;6.698;2022-07-06T02:56:38;7.23;;;3.20;;
12271;SDS011;6198;51.446;6.698;2022-07-06T02:59:04;5.00;;;3.10;;
12271;SDS011;6198;51.446;6.698;2022-07-06T03:01:30;5.60;;;3.20;;
12271;SDS011;6198;51.446;6.698;2022-07-06T03:03:56;6.40;;;3.80;;
12271;SDS011;6198;51.446;6.698;2022-07-06T03:06:22;4.13;;;2.90;;
12271;SDS011;6198;51.446;6.698;2022-07-06T03:08:48;3.53;;;3.10;;
12271;SDS011;6198;51.446;6.698;2022-07-06T03:11:14;3.20;;;2.90;;
12271;SDS011;6198;51.446;6.698;2022-07-06T03:13:40;6.63;;;3.20;;
12271;SDS011;6198;51.446;6.698;2022-07-06T03:16:06;5.93;;;3.50;;
12271;SDS011;6198;51.446;6.698;2022-07-06T03:18:32;3.77;;;3.47;;
12271;SDS011;6198;51.446;6.698;2022-07-06T03:20:58;5.03;;;4.17;;
12271;SDS011;6198;51.446;6.698;2022-07-06T03:23:24;6.07;;;3.60;;
12271;SDS011;6198;51.446;6.698;2022-07-06T03:25:50;5.37;;;3.87;;
12271;SDS011;6198;51.446;6.698;2022-07-06T03:28:16;3.67;;;3.30;;
12271;SDS011;6198;51.446;6.698;2022-07-06T03:30:42;6.90;;;3.97;;
12271;SDS011;6198;51.446;6.698;2022-07-06T03:33:08;4.97;;;3.80;;
12271;SDS011;6198;51.446;6.698;2022-07-06T03:35:34;4.30;;;3.50;;
12271;SDS011;6198;51.446;6.698;2022-07-06T03:38:00;3.67;;;3.30;;
12271;SDS011;6198;51.446;6.698;2022-07-06T03:40:27;5.03;;;4.07;;
12271;SDS011;6198;51.446;6.698;2022-07-06T03:42:53;7.73;;;4.13;;
12271;SDS011;6198;51.446;6.698;2022-07-06T03:45:19;6.03;;;3.97;;
12271;SDS011;6198;51.446;6.698;2022-07-06T03:47:45;6.77;;;3.60;;
12271;SDS011;6198;51.446;6.698;2022-07-06T03:50:11;6.50;;;4.47;;
12271;SDS011;6198;51.446;6.698;2022-07-06T03:52:37;4.20;;;3.80;;
12271;SDS011;6198;51.446;6.698;2022-07-06T03:55:06;6.70;;;4.13;;
12271;SDS011;6198;51.446;6.698;2022-07-06T03:57:32;6.13;;;3.90;;
12271;SDS011;6198;51.446;6.698;2022-07-06T03:59:58;7.50;;;3.80;;
12271;SDS011;6198;51.446;6.698;2022-07-06T04:02:24;6.17;;;4.20;;
12271;SDS011;6198;51.446;6.698;2022-07-06T04:04:50;4.77;;;3.40;;
12271;SDS011;6198;51.446;6.698;2022-07-06T04:07:16;4.37;;;3.60;;
12271;SDS011;6198;51.446;6.698;2022-07-06T04:09:42;5.07;;;3.60;;
12271;SDS011;6198;51.446;6.698;2022-07-06T04:12:08;6.07;;;3.70;;
12271;SDS011;6198;51.446;6.698;2022-07-06T04:14:34;4.73;;;3.70;;
12271;SDS011;6198;51.446;6.698;2022-07-06T04:17:00;5.97;;;3.43;;
12271;SDS011;6198;51.446;6.698;2022-07-06T04:19:46;4.93;;;3.63;;
12271;SDS011;6198;51.446;6.698;2022-07-06T04:22:12;5.47;;;3.37;;
12271;SDS011;6198;51.446;6.698;2022-07-06T04:24:38;4.20;;;3.80;;
12271;SDS011;6198;51.446;6.698;2022-07-06T04:27:04;3.97;;;3.53;;
12271;SDS011;6198;51.446;6.698;2022-07-06T04:29:30;4.53;;;3.50;;
12271;SDS011;6198;51.446;6.698;2022-07-06T04:31:56;5.03;;;3.70;;
12271;SDS011;6198;51.446;6.698;2022-07-06T04:34:22;5.70;;;3.60;;
12271;SDS011;6198;51.446;6.698;2022-07-06T04:36:48;5.30;;;3.80;;
12271;SDS011;6198;51.446;6.698;2022-07-06T04:39:13;5.83;;;3.53;;
12271;SDS011;6198;51.446;6.698;2022-07-06T04:41:39;5.17;;;3.60;;
12271;SDS011;6198;51.446;6.698;2022-07-06T04:44:05;5.43;;;3.70;;
12271;SDS011;6198;51.446;6.698;2022-07-06T04:46:31;5.30;;;3.37;;
12271;SDS011;6198;51.446;6.698;2022-07-06T04:48:57;4.10;;;3.30;;
12271;SDS011;6198;51.446;6.698;2022-07-06T04:51:23;9.47;;;3.70;;
12271;SDS011;6198;51.446;6.698;2022-07-06T04:53:49;4.20;;;3.07;;
12271;SDS011;6198;51.446;6.698;2022-07-06T04:56:15;4.20;;;3.23;;
12271;SDS011;6198;51.446;6.698;2022-07-06T04:58:41;4.60;;;3.30;;
12271;SDS011;6198;51.446;6.698;2022-07-06T05:01:07;4.73;;;3.00;;
12271;SDS011;6198;51.446;6.698;2022-07-06T05:03:33;4.37;;;3.00;;
12271;SDS011;6198;51.446;6.698;2022-07-06T05:06:05;4.27;;;3.10;;
12271;SDS011;6198;51.446;6.698;2022-07-06T05:08:31;4.93;;;2.87;;
12271;SDS011;6198;51.446;6.698;2022-07-06T05:10:57;5.30;;;3.00;;
12271;SDS011;6198;51.446;6.698;2022-07-06T05:13:23;5.63;;;3.17;;
12271;SDS011;6198;51.446;6.698;2022-07-06T05:15:49;3.33;;;3.00;;
12271;SDS011;6198;51.446;6.698;2022-07-06T05:18:15;3.17;;;2.87;;
12271;SDS011;6198;51.446;6.698;2022-07-06T05:20:41;4.57;;;3.40;;
12271;SDS011;6198;51.446;6.698;2022-07-06T05:23:07;5.90;;;3.30;;
12271;SDS011;6198;51.446;6.698;2022-07-06T05:25:33;4.73;;;2.90;;
12271;SDS011;6198;51.446;6.698;2022-07-06T05:28:00;6.77;;;3.00;;
12271;SDS011;6198;51.446;6.698;2022-07-06T05:30:26;6.20;;;3.03;;
12271;SDS011;6198;51.446;6.698;2022-07-06T05:32:52;5.23;;;3.23;;
12271;SDS011;6198;51.446;6.698;2022-07-06T05:35:18;4.77;;;2.93;;
12271;SDS011;6198;51.446;6.698;2022-07-06T05:37:44;5.43;;;3.20;;
12271;SDS011;6198;51.446;6.698;2022-07-06T05:40:10;4.93;;;3.00;;
12271;SDS011;6198;51.446;6.698;2022-07-06T05:42:36;7.40;;;2.70;;
12271;SDS011;6198;51.446;6.698;2022-07-06T05:45:02;3.40;;;2.70;;
12271;SDS011;6198;51.446;6.698;2022-07-06T05:47:29;3.00;;;2.70;;
12271;SDS011;6198;51.446;6.698;2022-07-06T05:50:14;5.73;;;3.10;;
12271;SDS011;6198;51.446;6.698;2022-07-06T05:52:40;9.47;;;3.00;;
12271;SDS011;6198;51.446;6.698;2022-07-06T05:55:07;7.47;;;2.77;;
12271;SDS011;6198;51.446;6.698;2022-07-06T05:57:34;3.20;;;2.90;;
12271;SDS011;6198;51.446;6.698;2022-07-06T06:00:00;5.73;;;3.13;;
12271;SDS011;6198;51.446;6.698;2022-07-06T06:02:26;5.63;;;2.87;;
12271;SDS011;6198;51.446;6.698;2022-07-06T06:04:52;21.20;;;8.10;;
12271;SDS011;6198;51.446;6.698;2022-07-06T06:07:18;5.33;;;3.00;;
12271;SDS011;6198;51.446;6.698;2022-07-06T06:09:44;8.40;;;4.10;;
12271;SDS011;6198;51.446;6.698;2022-07-06T06:12:10;16.87;;;9.00;;
12271;SDS011;6198;51.446;6.698;2022-07-06T06:14:36;5.67;;;4.10;;
12271;SDS011;6198;51.446;6.698;2022-07-06T06:17:02;4.80;;;3.67;;
12271;SDS011;6198;51.446;6.698;2022-07-06T06:19:33;4.63;;;2.63;;
12271;SDS011;6198;51.446;6.698;2022-07-06T06:22:01;4.10;;;3.13;;
12271;SDS011;6198;51.446;6.698;2022-07-06T06:24:27;5.07;;;2.47;;
12271;SDS011;6198;51.446;6.698;2022-07-06T06:26:53;6.50;;;2.60;;
12271;SDS011;6198;51.446;6.698;2022-07-06T06:29:19;4.90;;;2.37;;
12271;SDS011;6198;51.446;6.698;2022-07-06T06:31:45;2.77;;;2.30;;
12271;SDS011;6198;51.446;6.698;2022-07-06T06:34:11;3.20;;;2.40;;
12271;SDS011;6198;51.446;6.698;2022-07-06T06:36:37;3.80;;;2.50;;
12271;SDS011;6198;51.446;6.698;2022-07-06T06:39:03;4.53;;;2.70;;
12271;SDS011;6198;51.446;6.698;2022-07-06T06:41:29;2.60;;;2.07;;
12271;SDS011;6198;51.446;6.698;2022-07-06T06:43:54;2.57;;;2.13;;
12271;SDS011;6198;51.446;6.698;2022-07-06T06:46:21;2.27;;;2.07;;
12271;SDS011;6198;51.446;6.698;2022-07-06T06:48:46;2.80;;;2.00;;
12271;SDS011;6198;51.446;6.698;2022-07-06T06:51:12;3.53;;;2.00;;
12271;SDS011;6198;51.446;6.698;2022-07-06T06:53:38;6.20;;;2.20;;
12271;SDS011;6198;51.446;6.698;2022-07-06T06:56:04;2.00;;;1.73;;
12271;SDS011;6198;51.446;6.698;2022-07-06T06:58:30;4.73;;;2.03;;
12271;SDS011;6198;51.446;6.698;2022-07-06T07:00:56;3.60;;;1.80;;
12271;SDS011;6198;51.446;6.698;2022-07-06T07:03:22;4.20;;;2.07;;
12271;SDS011;6198;51.446;6.698;2022-07-06T07:05:48;3.37;;;2.13;;
12271;SDS011;6198;51.446;6.698;2022-07-06T07:08:14;2.13;;;1.50;;
12271;SDS011;6198;51.446;6.698;2022-07-06T07:10:40;4.13;;;1.80;;
12271;SDS011;6198;51.446;6.698;2022-07-06T07:13:06;3.00;;;1.60;;
12271;SDS011;6198;51.446;6.698;2022-07-06T07:15:32;2.60;;;1.90;;
12271;SDS011;6198;51.446;6.698;2022-07-06T07:17:58;5.03;;;2.07;;
12271;SDS011;6198;51.446;6.698;2022-07-06T07:20:24;2.70;;;1.80;;
12271;SDS011;6198;51.446;6.698;2022-07-06T07:22:50;6.80;;;1.97;;
12271;SDS011;6198;51.446;6.698;2022-07-06T07:25:16;3.30;;;1.83;;
12271;SDS011;6198;51.446;6.698;2022-07-06T07:27:42;5.07;;;1.70;;
12271;SDS011;6198;51.446;6.698;2022-07-06T07:30:08;2.20;;;1.60;;
12271;SDS011;6198;51.446;6.698;2022-07-06T07:32:34;3.33;;;1.90;;
12271;SDS011;6198;51.446;6.698;2022-07-06T07:35:00;2.43;;;1.50;;
12271;SDS011;6198;51.446;6.698;2022-07-06T07:37:27;8.33;;;1.57;;
12271;SDS011;6198;51.446;6.698;2022-07-06T07:39:53;2.27;;;1.60;;
12271;SDS011;6198;51.446;6.698;2022-07-06T07:42:19;4.57;;;1.27;;
12271;SDS011;6198;51.446;6.698;2022-07-06T07:44:45;4.33;;;1.90;;
12271;SDS011;6198;51.446;6.698;2022-07-06T07:47:11;5.00;;;1.30;;
12271;SDS011;6198;51.446;6.698;2022-07-06T07:49:37;2.60;;;1.30;;
12271;SDS011;6198;51.446;6.698;2022-07-06T07:52:03;3.23;;;1.50;;
12271;SDS011;6198;51.446;6.698;2022-07-06T07:54:29;2.47;;;1.40;;
12271;SDS011;6198;51.446;6.698;2022-07-06T07:56:55;3.67;;;1.60;;
12271;SDS011;6198;51.446;6.698;2022-07-06T07:59:21;1.30;;;1.20;;
12271;SDS011;6198;51.446;6.698;2022-07-06T08:01:47;3.73;;;1.40;;
12271;SDS011;6198;51.446;6.698;2022-07-06T08:04:13;2.47;;;1.30;;
12271;SDS011;6198;51.446;6.698;2022-07-06T08:06:39;1.63;;;1.50;;
12271;SDS011;6198;51.446;6.698;2022-07-06T08:09:05;1.83;;;1.30;;
12271;SDS011;6198;51.446;6.698;2022-07-06T08:11:35;1.50;;;1.30;;
12271;SDS011;6198;51.446;6.698;2022-07-06T08:14:01;2.20;;;1.40;;
12271;SDS011;6198;51.446;6.698;2022-07-06T08:16:27;1.97;;;1.40;;
12271;SDS011;6198;51.446;6.698;2022-07-06T08:18:53;1.40;;;1.23;;
12271;SDS011;6198;51.446;6.698;2022-07-06T08:21:19;2.97;;;1.33;;
12271;SDS011;6198;51.446;6.698;2022-07-06T08:23:45;1.70;;;1.23;;
12271;SDS011;6198;51.446;6.698;2022-07-06T08:26:11;2.00;;;1.20;;
12271;SDS011;6198;51.446;6.698;2022-07-06T08:28:38;4.83;;;1.40;;
12271;SDS011;6198;51.446;6.698;2022-07-06T08:31:03;3.43;;;1.30;;
12271;SDS011;6198;51.446;6.698;2022-07-06T08:33:29;2.07;;;1.20;;
12271;SDS011;6198;51.446;6.698;2022-07-06T08:35:55;1.23;;;1.07;;
12271;SDS011;6198;51.446;6.698;2022-07-06T08:38:21;3.13;;;1.33;;
12271;SDS011;6198;51.446;6.698;2022-07-06T08:40:49;4.77;;;1.30;;
12271;SDS011;6198;51.446;6.698;2022-07-06T08:43:15;2.33;;;1.37;;
12271;SDS011;6198;51.446;6.698;2022-07-06T08:45:41;3.23;;;1.53;;
12271;SDS011;6198;51.446;6.698;2022-07-06T08:48:11;3.70;;;1.47;;
12271;SDS011;6198;51.446;6.698;2022-07-06T08:50:37;1.27;;;1.17;;
12271;SDS011;6198;51.446;6.698;2022-07-06T08:53:03;3.17;;;1.30;;
12271;SDS011;6198;51.446;6.698;2022-07-06T08:55:30;2.07;;;1.10;;
12271;SDS011;6198;51.446;6.698;2022-07-06T08:57:56;2.10;;;1.30;;
12271;SDS011;6198;51.446;6.698;2022-07-06T09:00:23;1.60;;;1.47;;
12271;SDS011;6198;51.446;6.698;2022-07-06T09:02:50;1.37;;;1.17;;
12271;SDS011;6198;51.446;6.698;2022-07-06T09:05:16;2.30;;;1.30;;
12271;SDS011;6198;51.446;6.698;2022-07-06T09:07:44;1.43;;;1.00;;
12271;SDS011;6198;51.446;6.698;2022-07-06T09:10:11;2.03;;;1.20;;
12271;SDS011;6198;51.446;6.698;2022-07-06T09:12:37;1.40;;;1.03;;
12271;SDS011;6198;51.446;6.698;2022-07-06T09:15:03;2.17;;;1.30;;
12271;SDS011;6198;51.446;6.698;2022-07-06T09:17:29;4.10;;;1.47;;
12271;SDS011;6198;51.446;6.698;2022-07-06T09:19:55;1.57;;;1.10;;
12271;SDS011;6198;51.446;6.698;2022-07-06T09:22:26;3.03;;;1.30;;
12271;SDS011;6198;51.446;6.698;2022-07-06T09:24:52;1.93;;;1.30;;
12271;SDS011;6198;51.446;6.698;2022-07-06T09:27:18;2.43;;;1.10;;
12271;SDS011;6198;51.446;6.698;2022-07-06T09:29:44;1.93;;;1.20;;
12271;SDS011;6198;51.446;6.698;2022-07-06T09:32:10;1.53;;;1.23;;
12271;SDS011;6198;51.446;6.698;2022-07-06T09:34:40;1.00;;;1.00;;
12271;SDS011;6198;51.446;6.698;2022-07-06T09:37:06;2.00;;;1.03;;
12271;SDS011;6198;51.446;6.698;2022-07-06T09:39:32;1.20;;;1.10;;
12271;SDS011;6198;51.446;6.698;2022-07-06T09:41:59;1.17;;;1.10;;
12271;SDS011;6198;51.446;6.698;2022-07-06T09:44:26;1.50;;;1.10;;
12271;SDS011;6198;51.446;6.698;2022-07-06T09:46:53;1.43;;;1.30;;
12271;SDS011;6198;51.446;6.698;2022-07-06T09:49:21;1.87;;;1.20;;
12271;SDS011;6198;51.446;6.698;2022-07-06T09:51:48;2.80;;;1.30;;
12271;SDS011;6198;51.446;6.698;2022-07-06T09:54:14;3.30;;;1.37;;
12271;SDS011;6198;51.446;6.698;2022-07-06T09:56:42;2.00;;;1.27;;
12271;SDS011;6198;51.446;6.698;2022-07-06T09:59:12;1.27;;;1.10;;
12271;SDS011;6198;51.446;6.698;2022-07-06T10:01:38;4.17;;;0.93;;
12271;SDS011;6198;51.446;6.698;2022-07-06T10:04:05;1.90;;;1.30;;
12271;SDS011;6198;51.446;6.698;2022-07-06T10:06:31;1.20;;;1.10;;
12271;SDS011;6198;51.446;6.698;2022-07-06T10:08:57;2.10;;;1.00;;
12271;SDS011;6198;51.446;6.698;2022-07-06T10:11:24;2.10;;;1.13;;
12271;SDS011;6198;51.446;6.698;2022-07-06T10:13:51;1.90;;;1.10;;
12271;SDS011;6198;51.446;6.698;2022-07-06T10:16:18;2.83;;;1.20;;
12271;SDS011;6198;51.446;6.698;2022-07-06T10:18:44;1.10;;;1.00;;
12271;SDS011;6198;51.446;6.698;2022-07-06T10:21:10;2.27;;;1.10;;
12271;SDS011;6198;51.446;6.698;2022-07-06T10:23:36;2.00;;;1.10;;
12271;SDS011;6198;51.446;6.698;2022-07-06T10:26:03;6.13;;;1.20;;
12271;SDS011;6198;51.446;6.698;2022-07-06T10:28:29;2.20;;;1.30;;
12271;SDS011;6198;51.446;6.698;2022-07-06T10:30:56;2.27;;;1.30;;
12271;SDS011;6198;51.446;6.698;2022-07-06T10:33:22;1.83;;;1.27;;
12271;SDS011;6198;51.446;6.698;2022-07-06T10:35:48;2.07;;;1.13;;
12271;SDS011;6198;51.446;6.698;2022-07-06T10:38:15;3.80;;;1.27;;
12271;SDS011;6198;51.446;6.698;2022-07-06T10:40:42;2.00;;;1.30;;
12271;SDS011;6198;51.446;6.698;2022-07-06T10:43:37;1.20;;;1.10;;
12271;SDS011;6198;51.446;6.698;2022-07-06T10:46:06;1.20;;;1.10;;
12271;SDS011;6198;51.446;6.698;2022-07-06T10:48:36;1.03;;;1.00;;
12271;SDS011;6198;51.446;6.698;2022-07-06T10:51:02;1.90;;;1.23;;
12271;SDS011;6198;51.446;6.698;2022-07-06T10:53:31;2.80;;;1.90;;
12271;SDS011;6198;51.446;6.698;2022-07-06T10:56:10;1.47;;;1.20;;
12271;SDS011;6198;51.446;6.698;2022-07-06T11:01:11;2.10;;;1.20;;
12271;SDS011;6198;51.446;6.698;2022-07-06T11:06:05;1.27;;;1.17;;
12271;SDS011;6198;51.446;6.698;2022-07-06T11:08:41;2.10;;;1.30;;
12271;SDS011;6198;51.446;6.698;2022-07-06T11:11:11;1.53;;;1.27;;
12271;SDS011;6198;51.446;6.698;2022-07-06T11:13:47;2.43;;;1.20;;
12271;SDS011;6198;51.446;6.698;2022-07-06T11:16:15;2.97;;;1.27;;
12271;SDS011;6198;51.446;6.698;2022-07-06T11:18:41;3.70;;;1.47;;
12271;SDS011;6198;51.446;6.698;2022-07-06T11:21:15;1.20;;;1.10;;
12271;SDS011;6198;51.446;6.698;2022-07-06T11:23:41;1.50;;;1.20;;
12271;SDS011;6198;51.446;6.698;2022-07-06T11:26:08;1.40;;;1.30;;
12271;SDS011;6198;51.446;6.698;2022-07-06T11:28:34;1.97;;;1.30;;
12271;SDS011;6198;51.446;6.698;2022-07-06T11:31:01;2.03;;;1.30;;
12271;SDS011;6198;51.446;6.698;2022-07-06T11:33:30;3.50;;;1.60;;
12271;SDS011;6198;51.446;6.698;2022-07-06T11:36:15;2.40;;;1.10;;
12271;SDS011;6198;51.446;6.698;2022-07-06T11:38:42;2.07;;;1.50;;
12271;SDS011;6198;51.446;6.698;2022-07-06T11:41:08;1.80;;;1.13;;
12271;SDS011;6198;51.446;6.698;2022-07-06T11:43:36;1.67;;;1.10;;
12271;SDS011;6198;51.446;6.698;2022-07-06T11:46:02;1.13;;;1.03;;
12271;SDS011;6198;51.446;6.698;2022-07-06T11:48:28;1.20;;;1.03;;
12271;SDS011;6198;51.446;6.698;2022-07-06T11:51:01;1.00;;;1.00;;
12271;SDS011;6198;51.446;6.698;2022-07-06T11:53:28;1.37;;;1.20;;
12271;SDS011;6198;51.446;6.698;2022-07-06T11:55:54;1.43;;;1.00;;
12271;SDS011;6198;51.446;6.698;2022-07-06T11:58:21;1.30;;;1.20;;
12271;SDS011;6198;51.446;6.698;2022-07-06T12:01:09;1.23;;;1.10;;
12271;SDS011;6198;51.446;6.698;2022-07-06T12:03:34;2.67;;;1.20;;
12271;SDS011;6198;51.446;6.698;2022-07-06T12:06:01;3.20;;;1.20;;
12271;SDS011;6198;51.446;6.698;2022-07-06T12:08:27;1.03;;;0.93;;
12271;SDS011;6198;51.446;6.698;2022-07-06T12:10:53;1.57;;;1.27;;
12271;SDS011;6198;51.446;6.698;2022-07-06T12:13:20;1.20;;;1.10;;
12271;SDS011;6198;51.446;6.698;2022-07-06T12:15:46;2.47;;;1.10;;
12271;SDS011;6198;51.446;6.698;2022-07-06T12:18:12;2.37;;;1.10;;
12271;SDS011;6198;51.446;6.698;2022-07-06T12:20:38;1.40;;;1.20;;
12271;SDS011;6198;51.446;6.698;2022-07-06T12:23:04;2.10;;;1.40;;
12271;SDS011;6198;51.446;6.698;2022-07-06T12:27:57;2.70;;;1.53;;
12271;SDS011;6198;51.446;6.698;2022-07-06T12:30:23;1.40;;;1.30;;
12271;SDS011;6198;51.446;6.698;2022-07-06T12:35:33;1.47;;;0.97;;
12271;SDS011;6198;51.446;6.698;2022-07-06T12:37:59;1.03;;;1.00;;
12271;SDS011;6198;51.446;6.698;2022-07-06T12:40:26;1.23;;;1.00;;
12271;SDS011;6198;51.446;6.698;2022-07-06T12:42:52;4.73;;;1.30;;
12271;SDS011;6198;51.446;6.698;2022-07-06T12:45:18;2.53;;;1.00;;
12271;SDS011;6198;51.446;6.698;2022-07-06T12:47:57;1.53;;;1.40;;
12271;SDS011;6198;51.446;6.698;2022-07-06T12:50:33;1.37;;;1.10;;
12271;SDS011;6198;51.446;6.698;2022-07-06T12:52:59;1.50;;;1.23;;
12271;SDS011;6198;51.446;6.698;2022-07-06T12:55:26;4.20;;;2.07;;
12271;SDS011;6198;51.446;6.698;2022-07-06T12:57:52;1.87;;;1.50;;
12271;SDS011;6198;51.446;6.698;2022-07-06T13:00:19;2.40;;;1.23;;
12271;SDS011;6198;51.446;6.698;2022-07-06T13:02:47;1.10;;;1.10;;
12271;SDS011;6198;51.446;6.698;2022-07-06T13:05:14;1.40;;;1.30;;
12271;SDS011;6198;51.446;6.698;2022-07-06T13:07:44;1.90;;;1.20;;
12271;SDS011;6198;51.446;6.698;2022-07-06T13:10:10;3.43;;;1.20;;
12271;SDS011;6198;51.446;6.698;2022-07-06T13:12:37;1.57;;;1.20;;
12271;SDS011;6198;51.446;6.698;2022-07-06T13:15:04;2.70;;;1.10;;
12271;SDS011;6198;51.446;6.698;2022-07-06T13:17:30;5.17;;;1.60;;
12271;SDS011;6198;51.446;6.698;2022-07-06T13:19:56;1.43;;;1.30;;
12271;SDS011;6198;51.446;6.698;2022-07-06T13:22:22;1.60;;;1.13;;
12271;SDS011;6198;51.446;6.698;2022-07-06T13:24:48;1.67;;;1.20;;
12271;SDS011;6198;51.446;6.698;2022-07-06T13:27:14;1.30;;;1.20;;
12271;SDS011;6198;51.446;6.698;2022-07-06T13:29:40;1.30;;;1.20;;
12271;SDS011;6198;51.446;6.698;2022-07-06T13:32:06;1.63;;;1.23;;
12271;SDS011;6198;51.446;6.698;2022-07-06T13:34:32;1.30;;;1.20;;
12271;SDS011;6198;51.446;6.698;2022-07-06T13:37:00;2.50;;;1.17;;
12271;SDS011;6198;51.446;6.698;2022-07-06T13:39:26;1.30;;;1.20;;
12271;SDS011;6198;51.446;6.698;2022-07-06T13:41:52;1.30;;;1.00;;
12271;SDS011;6198;51.446;6.698;2022-07-06T13:44:18;1.73;;;1.20;;
12271;SDS011;6198;51.446;6.698;2022-07-06T13:46:44;1.50;;;1.10;;
12271;SDS011;6198;51.446;6.698;2022-07-06T13:49:10;2.33;;;1.37;;
12271;SDS011;6198;51.446;6.698;2022-07-06T13:51:37;2.77;;;1.50;;
12271;SDS011;6198;51.446;6.698;2022-07-06T13:54:03;1.73;;;1.30;;
12271;SDS011;6198;51.446;6.698;2022-07-06T13:56:29;1.00;;;1.00;;
12271;SDS011;6198;51.446;6.698;2022-07-06T13:58:55;1.63;;;1.20;;
12271;SDS011;6198;51.446;6.698;2022-07-06T14:01:21;2.50;;;1.20;;
12271;SDS011;6198;51.446;6.698;2022-07-06T14:03:47;1.30;;;1.20;;
12271;SDS011;6198;51.446;6.698;2022-07-06T14:06:13;1.27;;;1.17;;
12271;SDS011;6198;51.446;6.698;2022-07-06T14:08:41;1.93;;;1.27;;
12271;SDS011;6198;51.446;6.698;2022-07-06T14:11:07;1.77;;;1.27;;
12271;SDS011;6198;51.446;6.698;2022-07-06T14:13:33;3.30;;;1.30;;
12271;SDS011;6198;51.446;6.698;2022-07-06T14:15:59;2.20;;;1.10;;
12271;SDS011;6198;51.446;6.698;2022-07-06T14:18:25;1.33;;;1.00;;
12271;SDS011;6198;51.446;6.698;2022-07-06T14:20:51;1.13;;;1.03;;
12271;SDS011;6198;51.446;6.698;2022-07-06T14:23:18;1.40;;;1.07;;
12271;SDS011;6198;51.446;6.698;2022-07-06T14:25:44;2.33;;;1.37;;
12271;SDS011;6198;51.446;6.698;2022-07-06T14:28:10;1.20;;;1.00;;
12271;SDS011;6198;51.446;6.698;2022-07-06T14:30:38;0.90;;;0.90;;
12271;SDS011;6198;51.446;6.698;2022-07-06T14:33:04;2.37;;;1.50;;
12271;SDS011;6198;51.446;6.698;2022-07-06T14:35:39;1.67;;;1.23;;
12271;SDS011;6198;51.446;6.698;2022-07-06T14:38:05;1.00;;;1.00;;
12271;SDS011;6198;51.446;6.698;2022-07-06T14:40:32;2.63;;;1.30;;
12271;SDS011;6198;51.446;6.698;2022-07-06T14:42:58;1.20;;;1.10;;
12271;SDS011;6198;51.446;6.698;2022-07-06T14:45:24;1.67;;;1.13;;
12271;SDS011;6198;51.446;6.698;2022-07-06T14:47:51;1.43;;;1.10;;
12271;SDS011;6198;51.446;6.698;2022-07-06T14:50:17;1.07;;;1.07;;
12271;SDS011;6198;51.446;6.698;2022-07-06T14:52:43;2.57;;;1.40;;
12271;SDS011;6198;51.446;6.698;2022-07-06T14:55:09;2.80;;;1.10;;
12271;SDS011;6198;51.446;6.698;2022-07-06T14:57:35;1.27;;;1.17;;
12271;SDS011;6198;51.446;6.698;2022-07-06T15:00:01;1.33;;;1.10;;
12271;SDS011;6198;51.446;6.698;2022-07-06T15:02:27;2.97;;;2.00;;
12271;SDS011;6198;51.446;6.698;2022-07-06T15:04:53;1.77;;;1.10;;
12271;SDS011;6198;51.446;6.698;2022-07-06T15:07:19;1.37;;;1.27;;